Time;durP1;ratioP1;P1;durP2;ratioP2;P2;SDS_P1;SDS_P2;PMS_P1;PMS_P2;Temp;Humidity;BMP_temperature;BMP_pressure;BME280_temperature;BME280_humidity;BME280_pressure;Samples;Min_cycle;Max_cycle;Signal;HPM_P1;HPM_P2
2021/08/30 00:01:19;;;;;;;23.13;15.57;;;15.50;99.90;;;;;;4206868;28;20511;-72
2021/08/30 00:03:20;;;;;;;27.50;17.67;;;15.60;99.90;;;;;;4213312;28;20035;-72
2021/08/30 00:05:20;;;;;;;23.60;16.33;;;15.60;99.90;;;;;;4208400;28;20436;-72
2021/08/30 00:07:21;;;;;;;30.25;16.15;;;15.60;99.90;;;;;;4205709;28;20036;-72
2021/08/30 00:09:21;;;;;;;26.00;15.85;;;15.60;99.90;;;;;;4206794;28;20029;-72
2021/08/30 00:11:22;;;;;;;18.55;14.38;;;15.70;99.90;;;;;;4197718;28;20107;-72
2021/08/30 00:13:23;;;;;;;23.88;16.63;;;15.70;99.90;;;;;;4201595;28;20052;-72
2021/08/30 00:15:23;;;;;;;27.20;17.05;;;15.70;99.90;;;;;;4203179;28;20035;-72
2021/08/30 00:17:24;;;;;;;26.55;16.63;;;15.70;99.90;;;;;;4206118;28;20139;-72
2021/08/30 00:19:25;;;;;;;23.10;15.95;;;15.60;99.90;;;;;;4188714;28;20103;-72
2021/08/30 00:21:25;;;;;;;23.25;15.70;;;15.60;99.90;;;;;;4210624;28;20384;-72
2021/08/30 00:23:26;;;;;;;25.38;16.30;;;15.60;99.90;;;;;;4210501;28;20429;-72
2021/08/30 00:25:27;;;;;;;22.42;16.67;;;15.50;99.90;;;;;;4211995;28;20058;-72
2021/08/30 00:27:29;;;;;;;21.95;16.30;;;15.50;99.90;;;;;;4211238;28;20020;-72
2021/08/30 00:29:29;;;;;;;23.52;16.08;;;15.50;99.90;;;;;;4207104;28;20063;-72
2021/08/30 00:31:30;;;;;;;25.00;17.55;;;15.60;99.90;;;;;;4206158;28;20036;-72
2021/08/30 00:33:31;;;;;;;25.17;15.07;;;15.60;99.90;;;;;;4211723;28;20044;-71
2021/08/30 00:35:31;;;;;;;22.13;15.73;;;15.70;99.90;;;;;;4210464;28;20379;-72
2021/08/30 00:37:32;;;;;;;24.30;16.05;;;15.70;99.90;;;;;;4200003;28;20029;-72
2021/08/30 00:39:33;;;;;;;20.00;14.82;;;15.70;99.90;;;;;;4203142;28;20483;-71
2021/08/30 00:41:34;;;;;;;20.30;15.32;;;15.70;99.90;;;;;;4212318;28;20067;-72
2021/08/30 00:43:35;;;;;;;25.42;15.52;;;15.80;99.90;;;;;;4189923;28;20124;-71
2021/08/30 00:45:35;;;;;;;21.88;15.68;;;15.80;99.90;;;;;;4192368;28;20029;-71
2021/08/30 00:47:44;;;;;;;21.83;14.07;;;15.80;99.90;;;;;;4209016;28;20114;-72
2021/08/30 00:49:45;;;;;;;23.17;15.80;;;15.90;99.90;;;;;;4190792;28;20139;-72
2021/08/30 00:51:45;;;;;;;16.10;13.48;;;15.90;99.90;;;;;;4190613;28;20036;-72
2021/08/30 00:53:47;;;;;;;20.08;15.57;;;15.90;99.90;;;;;;4200503;28;20047;-72
2021/08/30 00:55:48;;;;;;;19.17;14.30;;;16.00;99.90;;;;;;4191670;28;20420;-73
2021/08/30 00:57:50;;;;;;;19.23;14.57;;;15.90;99.90;;;;;;4208961;28;20028;-72
2021/08/30 00:59:51;;;;;;;23.15;15.80;;;15.90;99.90;;;;;;4202631;28;20041;-72
2021/08/30 01:01:52;;;;;;;20.20;14.00;;;16.00;99.90;;;;;;4202458;28;20035;-72
2021/08/30 01:03:53;;;;;;;21.02;14.73;;;16.00;99.90;;;;;;4208521;28;20043;-72
2021/08/30 01:06:03;;;;;;;17.30;14.07;;;16.10;99.90;;;;;;4206135;28;20059;-72
2021/08/30 01:08:14;;;;;;;17.73;13.77;;;16.10;99.90;;;;;;4199695;28;20472;-72
2021/08/30 01:10:34;;;;;;;18.15;13.50;;;16.10;99.90;;;;;;4194930;28;20090;-72
2021/08/30 01:12:48;;;;;;;21.05;15.73;;;16.20;99.90;;;;;;4212041;28;20105;-72
2021/08/30 01:15:39;;;;;;;16.58;13.18;;;16.20;99.90;;;;;;4209474;28;20036;-72
2021/08/30 01:17:42;;;;;;;17.65;13.57;;;16.20;99.90;;;;;;4200581;28;20036;-72
2021/08/30 01:19:48;;;;;;;18.40;13.90;;;16.10;99.90;;;;;;4204285;28;20033;-72
2021/08/30 01:21:49;;;;;;;16.70;13.55;;;16.10;99.90;;;;;;4203673;28;20502;-72
2021/08/30 01:23:56;;;;;;;18.75;15.05;;;16.10;99.90;;;;;;4211801;28;20032;-73
2021/08/30 01:25:59;;;;;;;18.27;13.85;;;16.10;99.90;;;;;;4189547;28;20489;-72
2021/08/30 01:28:00;;;;;;;19.10;14.70;;;16.10;99.90;;;;;;4205818;28;20040;-72
2021/08/30 01:30:05;;;;;;;18.30;14.85;;;16.10;99.90;;;;;;4203385;28;20036;-73
2021/08/30 01:32:31;;;;;;;22.95;14.00;;;16.00;99.90;;;;;;4203190;28;20375;-72
2021/08/30 01:34:34;;;;;;;19.65;13.93;;;16.10;99.90;;;;;;4211953;28;20032;-72
2021/08/30 01:36:36;;;;;;;21.08;14.93;;;16.00;99.90;;;;;;4205580;28;20060;-72
2021/08/30 01:38:45;;;;;;;18.23;14.55;;;16.00;99.90;;;;;;4204698;28;20719;-71
2021/08/30 01:40:47;;;;;;;20.35;14.40;;;16.00;99.90;;;;;;4191615;28;20508;-72
2021/08/30 01:42:51;;;;;;;23.08;13.88;;;16.00;99.90;;;;;;4196485;28;20061;-71
2021/08/30 01:44:53;;;;;;;23.35;15.52;;;16.00;99.90;;;;;;4198288;28;20050;-71
2021/08/30 01:46:55;;;;;;;20.05;14.07;;;16.00;99.90;;;;;;4193745;28;20040;-72
2021/08/30 01:48:57;;;;;;;16.73;13.48;;;16.00;99.90;;;;;;4193733;28;20349;-71
2021/08/30 01:50:58;;;;;;;18.98;13.90;;;16.00;99.90;;;;;;4211459;28;20088;-72
2021/08/30 01:53:04;;;;;;;18.88;14.98;;;16.00;99.90;;;;;;4207146;28;20510;-71
2021/08/30 01:57:20;;;;;;;17.00;14.82;;;16.10;99.90;;;;;;4204927;28;20376;-72
2021/08/30 02:01:41;;;;;;;17.35;13.32;;;16.00;99.90;;;;;;4207536;28;20117;-72
2021/08/30 02:03:42;;;;;;;18.17;15.32;;;16.10;99.90;;;;;;4206041;28;20037;-72
2021/08/30 02:05:44;;;;;;;21.15;13.90;;;16.10;99.90;;;;;;4203699;28;20032;-72
2021/08/30 02:07:45;;;;;;;19.95;14.27;;;16.00;99.90;;;;;;4207309;28;20518;-72
2021/08/30 02:09:45;;;;;;;19.20;15.50;;;16.00;99.90;;;;;;4209413;28;20040;-73
2021/08/30 02:11:46;;;;;;;19.10;14.18;;;16.00;99.90;;;;;;4200752;28;20032;-72
2021/08/30 02:13:47;;;;;;;17.33;14.15;;;16.00;99.90;;;;;;4207445;28;20432;-72
2021/08/30 02:15:47;;;;;;;19.70;14.95;;;15.90;99.90;;;;;;4198049;28;20421;-71
2021/08/30 02:17:53;;;;;;;20.60;13.98;;;16.00;99.90;;;;;;4205051;28;20472;-72
2021/08/30 02:20:00;;;;;;;19.85;15.00;;;16.00;99.90;;;;;;4199396;28;20040;-72
2021/08/30 02:22:05;;;;;;;18.23;14.50;;;16.00;99.90;;;;;;4210926;28;20475;-72
2021/08/30 02:24:36;;;;;;;19.85;14.30;;;16.00;99.90;;;;;;4202462;28;20024;-72
2021/08/30 02:26:54;;;;;;;17.77;14.20;;;16.00;99.90;;;;;;4200943;28;20025;-72
2021/08/30 02:28:58;;;;;;;25.30;14.88;;;16.00;99.90;;;;;;4208512;28;20036;-72
2021/08/30 02:31:01;;;;;;;21.35;15.05;;;15.90;99.90;;;;;;4204278;28;20036;-72
2021/08/30 02:33:06;;;;;;;20.38;15.88;;;15.90;99.90;;;;;;4205237;28;20107;-72
2021/08/30 02:35:09;;;;;;;21.88;16.10;;;15.80;99.90;;;;;;4205312;28;20063;-72
2021/08/30 02:37:11;;;;;;;21.15;16.92;;;15.70;99.90;;;;;;4207406;28;20024;-72
2021/08/30 02:39:12;;;;;;;22.23;15.88;;;15.60;99.90;;;;;;4192977;28;20116;-72
2021/08/30 02:41:13;;;;;;;23.90;17.77;;;15.50;99.90;;;;;;4196512;28;20067;-73
2021/08/30 02:43:13;;;;;;;24.98;16.58;;;15.50;99.90;;;;;;4208421;28;20024;-72
2021/08/30 02:45:15;;;;;;;22.05;16.58;;;15.50;99.90;;;;;;4202618;28;20510;-70
2021/08/30 02:47:18;;;;;;;21.13;16.58;;;15.60;99.90;;;;;;4198787;28;20031;-73
2021/08/30 02:49:18;;;;;;;27.05;18.38;;;15.70;99.90;;;;;;4203498;28;20036;-71
2021/08/30 02:51:19;;;;;;;27.48;18.42;;;15.60;99.90;;;;;;4191778;28;20153;-72
2021/08/30 02:53:23;;;;;;;24.55;17.73;;;15.60;99.90;;;;;;4193834;28;20020;-72
2021/08/30 02:55:24;;;;;;;26.05;17.42;;;15.60;99.90;;;;;;4210664;28;20110;-72
2021/08/30 02:57:26;;;;;;;23.70;17.58;;;15.70;99.90;;;;;;4213986;28;20076;-73
2021/08/30 02:59:27;;;;;;;25.23;17.02;;;15.70;99.90;;;;;;4214786;28;20097;-72
2021/08/30 03:01:28;;;;;;;23.50;18.10;;;15.70;99.90;;;;;;4215026;28;20415;-72
2021/08/30 03:03:29;;;;;;;26.70;17.42;;;15.70;99.90;;;;;;4214040;28;20046;-72
2021/08/30 03:05:31;;;;;;;22.40;17.35;;;15.70;99.90;;;;;;4214779;28;20551;-72
2021/08/30 03:07:34;;;;;;;25.15;16.48;;;15.70;99.90;;;;;;4196262;28;20029;-73
2021/08/30 03:09:35;;;;;;;27.80;17.10;;;15.80;99.90;;;;;;4213447;28;20033;-72
2021/08/30 03:11:37;;;;;;;26.85;17.55;;;15.80;99.90;;;;;;4211029;28;20543;-73
2021/08/30 03:13:43;;;;;;;22.88;16.10;;;15.90;99.90;;;;;;4213353;28;20044;-72
2021/08/30 03:15:46;;;;;;;23.98;16.75;;;15.90;99.90;;;;;;4214862;28;20059;-72
2021/08/30 03:17:46;;;;;;;27.85;17.10;;;15.80;99.90;;;;;;4214614;28;20519;-72
2021/08/30 03:19:48;;;;;;;24.95;17.90;;;15.80;99.90;;;;;;4213310;28;20064;-72
2021/08/30 03:21:50;;;;;;;31.10;18.50;;;15.80;99.90;;;;;;4211357;28;20169;-72
2021/08/30 03:23:52;;;;;;;21.80;17.30;;;15.80;99.90;;;;;;4214658;28;20410;-72
2021/08/30 03:25:54;;;;;;;26.92;18.50;;;15.70;99.90;;;;;;4210647;28;20032;-72
2021/08/30 03:27:57;;;;;;;24.98;18.13;;;15.70;99.90;;;;;;4214603;28;20028;-72
2021/08/30 03:29:58;;;;;;;24.27;18.85;;;15.70;99.90;;;;;;4196099;28;20129;-72
2021/08/30 03:32:01;;;;;;;23.00;17.50;;;15.70;99.90;;;;;;4215097;28;20107;-73
2021/08/30 03:34:02;;;;;;;26.67;18.67;;;15.70;99.90;;;;;;4212363;28;21006;-73
2021/08/30 03:36:04;;;;;;;26.83;19.27;;;15.80;99.90;;;;;;4214577;28;21483;-72
2021/08/30 03:38:05;;;;;;;32.35;18.63;;;15.80;99.90;;;;;;4193350;28;20084;-72
2021/08/30 03:40:06;;;;;;;29.13;18.92;;;15.70;99.90;;;;;;4212159;28;20637;-72
2021/08/30 03:42:07;;;;;;;31.38;20.00;;;15.70;99.90;;;;;;4214241;28;20028;-72
2021/08/30 03:44:09;;;;;;;27.00;19.85;;;15.70;99.90;;;;;;4189968;28;20084;-72
2021/08/30 03:46:11;;;;;;;26.27;18.70;;;15.70;99.90;;;;;;4196104;28;20032;-72
2021/08/30 03:48:12;;;;;;;27.15;18.92;;;15.70;99.90;;;;;;4213214;28;20020;-72
2021/08/30 03:50:14;;;;;;;25.75;19.70;;;15.80;99.90;;;;;;4194730;28;20147;-73
2021/08/30 03:52:15;;;;;;;27.75;19.90;;;15.80;99.90;;;;;;4213543;28;20497;-72
2021/08/30 03:54:16;;;;;;;25.02;18.40;;;15.90;99.90;;;;;;4214006;28;20028;-72
2021/08/30 03:56:18;;;;;;;29.42;19.02;;;15.90;99.90;;;;;;4214293;28;20047;-72
2021/08/30 03:58:21;;;;;;;28.60;19.52;;;15.90;99.90;;;;;;4214213;28;20402;-73
2021/08/30 04:00:21;;;;;;;;;;;15.90;99.90;;;;;;4210334;28;20043;-72
2021/08/30 04:02:24;;;;;;;28.38;19.50;;;15.90;99.90;;;;;;4194070;28;19912;-72
2021/08/30 04:04:26;;;;;;;29.38;18.80;;;15.90;99.90;;;;;;4209416;28;20430;-72
2021/08/30 04:06:31;;;;;;;25.70;21.27;;;15.90;99.90;;;;;;4189895;28;20040;-71
2021/08/30 04:08:31;;;;;;;29.02;19.33;;;16.00;99.90;;;;;;4213058;28;20093;-71
2021/08/30 04:10:33;;;;;;;28.98;20.13;;;15.90;99.90;;;;;;4214023;28;20479;-72
2021/08/30 04:12:33;;;;;;;22.88;19.02;;;16.00;99.90;;;;;;4205385;28;20039;-71
2021/08/30 04:14:35;;;;;;;23.48;17.88;;;16.00;99.90;;;;;;4204314;28;20036;-70
2021/08/30 04:16:36;;;;;;;25.52;19.42;;;16.00;99.90;;;;;;4191202;28;20041;-73
2021/08/30 04:18:36;;;;;;;30.48;20.52;;;16.00;99.90;;;;;;4186897;28;20036;-74
2021/08/30 04:20:37;;;;;;;27.80;20.67;;;16.00;99.90;;;;;;4212585;28;20100;-72
2021/08/30 04:22:37;;;;;;;27.75;19.85;;;16.00;99.90;;;;;;4208477;28;20094;-70
2021/08/30 04:24:38;;;;;;;31.00;22.15;;;16.00;99.90;;;;;;4212085;28;20398;-71
2021/08/30 04:26:39;;;;;;;28.30;20.35;;;16.00;99.90;;;;;;4204856;28;20062;-71
2021/08/30 04:28:39;;;;;;;34.33;21.63;;;16.00;99.90;;;;;;4212546;28;20031;-72
2021/08/30 04:30:40;;;;;;;29.52;20.98;;;16.10;99.90;;;;;;4208798;28;20040;-71
2021/08/30 04:32:41;;;;;;;31.63;20.70;;;16.10;99.90;;;;;;4204051;28;20066;-71
2021/08/30 04:34:42;;;;;;;27.15;20.70;;;16.10;99.90;;;;;;4191792;28;20037;-72
2021/08/30 04:36:42;;;;;;;36.45;22.35;;;16.10;99.90;;;;;;4193954;28;20051;-73
2021/08/30 04:38:43;;;;;;;27.90;22.15;;;16.10;99.90;;;;;;4211957;28;20379;-72
2021/08/30 04:40:44;;;;;;;30.13;20.05;;;16.20;99.90;;;;;;4209548;28;20503;-73
2021/08/30 04:42:45;;;;;;;26.83;19.13;;;16.20;99.90;;;;;;4212061;28;20073;-73
2021/08/30 04:44:46;;;;;;;31.33;21.40;;;16.20;99.90;;;;;;4208712;28;20082;-72
2021/08/30 04:46:46;;;;;;;31.23;21.83;;;16.20;99.90;;;;;;4212887;28;20036;-72
2021/08/30 04:48:47;;;;;;;31.55;20.95;;;16.20;99.90;;;;;;4193959;28;20029;-72
2021/08/30 04:50:48;;;;;;;25.35;19.45;;;16.20;99.90;;;;;;4208631;28;20047;-72
2021/08/30 04:52:49;;;;;;;29.63;21.30;;;16.20;99.90;;;;;;4191111;28;20119;-72
2021/08/30 04:54:49;;;;;;;35.88;22.65;;;16.20;99.90;;;;;;4190400;28;20508;-72
2021/08/30 04:56:50;;;;;;;35.17;23.23;;;16.20;99.90;;;;;;4212161;28;20047;-72
2021/08/30 04:58:50;;;;;;;35.67;22.35;;;16.30;99.90;;;;;;4212988;28;20447;-72
2021/08/30 05:00:51;;;;;;;34.33;22.20;;;16.30;99.90;;;;;;4188733;28;20115;-72
2021/08/30 05:02:52;;;;;;;36.88;23.33;;;16.30;99.90;;;;;;4191416;28;20122;-73
2021/08/30 05:04:55;;;;;;;30.25;21.13;;;16.30;99.90;;;;;;4211645;28;20059;-72
2021/08/30 05:06:56;;;;;;;31.88;23.10;;;16.30;99.90;;;;;;4195452;28;20039;-72
2021/08/30 05:08:56;;;;;;;33.72;22.60;;;16.30;99.90;;;;;;4212431;28;20491;-72
2021/08/30 05:10:57;;;;;;;29.40;23.45;;;16.30;99.90;;;;;;4212774;28;20032;-72
2021/08/30 05:12:57;;;;;;;29.38;21.85;;;16.40;99.90;;;;;;4214536;28;20059;-73
2021/08/30 05:14:58;;;;;;;39.67;24.30;;;16.40;99.90;;;;;;4195143;28;20559;-72
2021/08/30 05:16:59;;;;;;;34.65;23.67;;;16.40;99.90;;;;;;4209966;28;20035;-72
2021/08/30 05:18:59;;;;;;;35.78;23.50;;;16.40;99.90;;;;;;4211152;28;20124;-73
2021/08/30 05:21:00;;;;;;;39.67;24.90;;;16.30;99.90;;;;;;4187783;28;20043;-73
2021/08/30 05:23:01;;;;;;;35.70;23.33;;;16.30;99.90;;;;;;4212064;28;20515;-72
2021/08/30 05:25:02;;;;;;;38.45;26.13;;;16.30;99.90;;;;;;4213021;28;20464;-73
2021/08/30 05:27:03;;;;;;;42.70;24.58;;;16.30;99.90;;;;;;4212393;28;20032;-73
2021/08/30 05:29:03;;;;;;;36.70;23.90;;;16.30;99.90;;;;;;4212914;28;20039;-72
2021/08/30 05:31:04;;;;;;;38.00;24.13;;;16.30;99.90;;;;;;4206132;28;20028;-73
2021/08/30 05:33:05;;;;;;;40.35;23.88;;;16.40;99.90;;;;;;4194097;28;20095;-72
2021/08/30 05:35:06;;;;;;;37.75;22.17;;;16.40;99.90;;;;;;4212025;28;20709;-72
2021/08/30 05:37:08;;;;;;;49.72;31.85;;;16.40;99.90;;;;;;4188044;28;20032;-72
2021/08/30 05:39:08;;;;;;;40.10;27.90;;;16.50;99.90;;;;;;4207551;28;20503;-72
2021/08/30 05:41:09;;;;;;;39.75;26.33;;;16.50;99.90;;;;;;4212376;28;20122;-72
2021/08/30 05:43:09;;;;;;;51.75;30.83;;;16.60;99.90;;;;;;4212718;28;20495;-72
2021/08/30 05:45:10;;;;;;;35.53;24.10;;;16.10;99.90;;;;;;4186304;28;20415;-72
2021/08/30 05:47:11;;;;;;;36.08;25.20;;;16.70;99.90;;;;;;4207177;28;20039;-72
2021/08/30 05:49:11;;;;;;;34.63;24.13;;;16.70;99.90;;;;;;4207764;28;20052;-72
2021/08/30 05:51:13;;;;;;;37.00;24.67;;;16.70;99.90;;;;;;4211369;28;20118;-72
2021/08/30 05:53:13;;;;;;;33.13;23.08;;;16.80;99.90;;;;;;4211683;28;20428;-72
2021/08/30 05:55:14;;;;;;;39.78;26.95;;;16.80;99.90;;;;;;4210656;28;20039;-72
2021/08/30 05:57:15;;;;;;;39.72;26.38;;;16.80;99.90;;;;;;4211856;28;20028;-72
2021/08/30 05:59:15;;;;;;;36.95;26.17;;;16.80;99.90;;;;;;4211102;28;20036;-72
2021/08/30 06:01:16;;;;;;;38.70;26.67;;;16.80;99.90;;;;;;4188021;28;20036;-72
2021/08/30 06:03:17;;;;;;;39.90;26.27;;;16.80;99.90;;;;;;4202053;28;20382;-71
2021/08/30 06:05:17;;;;;;;39.38;26.52;;;16.80;99.90;;;;;;4203703;28;20034;-72
2021/08/30 06:07:18;;;;;;;35.33;26.35;;;16.90;99.90;;;;;;4210596;28;20519;-72
2021/08/30 06:09:19;;;;;;;37.33;25.75;;;17.00;99.90;;;;;;4192991;28;20033;-72
2021/08/30 06:11:19;;;;;;;39.25;26.58;;;17.10;99.90;;;;;;4211278;28;20472;-72
2021/08/30 06:13:20;;;;;;;40.08;25.55;;;17.10;99.90;;;;;;4208712;28;20135;-72
2021/08/30 06:15:20;;;;;;;37.67;26.27;;;17.10;99.90;;;;;;4201805;28;20091;-72
2021/08/30 06:17:21;;;;;;;40.03;26.95;;;17.00;99.90;;;;;;4206297;28;20372;-72
2021/08/30 06:19:22;;;;;;;38.10;25.55;;;17.00;99.90;;;;;;4190175;28;20040;-71
2021/08/30 06:21:22;;;;;;;34.60;26.25;;;17.10;99.90;;;;;;4193362;28;20052;-72
2021/08/30 06:23:23;;;;;;;40.90;27.67;;;17.10;99.90;;;;;;4212338;28;20107;-72
2021/08/30 06:25:24;;;;;;;34.33;24.05;;;17.20;99.90;;;;;;4207348;28;20051;-72
2021/08/30 06:27:24;;;;;;;40.05;26.15;;;17.30;99.90;;;;;;4204987;28;20371;-72
2021/08/30 06:29:25;;;;;;;36.17;26.25;;;17.30;99.90;;;;;;4204560;28;20052;-72
2021/08/30 06:31:26;;;;;;;40.58;26.63;;;17.40;99.90;;;;;;4212998;28;20066;-72
2021/08/30 06:33:28;;;;;;;38.92;26.25;;;17.50;99.90;;;;;;4196147;28;20095;-73
2021/08/30 06:35:28;;;;;;;36.95;25.52;;;17.50;99.90;;;;;;4204218;28;20032;-71
2021/08/30 06:37:29;;;;;;;38.85;25.33;;;17.60;99.90;;;;;;4208633;28;20038;-72
2021/08/30 06:39:29;;;;;;;34.58;24.95;;;17.70;99.90;;;;;;4212570;28;20483;-72
2021/08/30 06:41:30;;;;;;;38.33;24.75;;;17.80;99.90;;;;;;4176346;28;20104;-71
2021/08/30 06:43:31;;;;;;;32.30;25.20;;;17.70;99.90;;;;;;4195307;28;20033;-72
2021/08/30 06:45:32;;;;;;;41.35;25.13;;;17.80;99.90;;;;;;4195790;28;20029;-71
2021/08/30 06:47:33;;;;;;;39.25;24.33;;;17.80;99.90;;;;;;4193915;28;20433;-71
2021/08/30 06:49:33;;;;;;;34.53;24.08;;;17.90;99.90;;;;;;4194467;28;20036;-72
2021/08/30 06:51:34;;;;;;;29.40;23.42;;;17.90;99.90;;;;;;4193215;28;20037;-72
2021/08/30 06:53:34;;;;;;;38.33;25.48;;;17.80;99.90;;;;;;4193230;28;20094;-72
2021/08/30 06:55:35;;;;;;;31.17;22.77;;;17.90;99.90;;;;;;4193326;28;20036;-71
2021/08/30 06:57:36;;;;;;;35.22;24.13;;;17.90;99.90;;;;;;4196353;28;20356;-71
2021/08/30 06:59:37;;;;;;;34.30;23.45;;;17.90;99.90;;;;;;4196362;28;20041;-71
2021/08/30 07:01:37;;;;;;;39.00;24.00;;;18.00;99.90;;;;;;4197838;28;20028;-71
2021/08/30 07:03:38;;;;;;;37.30;24.65;;;18.00;99.90;;;;;;4194132;28;20116;-72
2021/08/30 07:05:39;;;;;;;30.52;21.75;;;18.00;99.90;;;;;;4195308;28;20044;-72
2021/08/30 07:07:40;;;;;;;33.90;22.13;;;18.10;99.90;;;;;;4196127;28;20028;-72
2021/08/30 07:09:41;;;;;;;30.75;22.13;;;18.20;99.90;;;;;;4191633;28;20036;-72
2021/08/30 07:11:41;;;;;;;29.25;22.92;;;18.20;99.90;;;;;;4200951;28;20164;-71
2021/08/30 07:13:42;;;;;;;29.90;21.08;;;18.30;99.90;;;;;;4185690;28;20098;-71
2021/08/30 07:15:43;;;;;;;28.70;19.65;;;18.40;99.90;;;;;;4186028;28;20131;-70
2021/08/30 07:17:43;;;;;;;23.63;19.23;;;18.60;99.90;;;;;;4184202;28;20162;-70
2021/08/30 07:19:45;;;;;;;29.00;20.75;;;18.70;99.90;;;;;;4188809;28;20522;-70
2021/08/30 07:21:46;;;;;;;30.98;21.08;;;18.80;99.90;;;;;;4187308;28;20035;-71
2021/08/30 07:23:46;;;;;;;28.38;20.15;;;18.80;99.90;;;;;;4194318;28;20433;-71
2021/08/30 07:25:48;;;;;;;31.27;21.58;;;18.80;99.90;;;;;;4196497;28;20454;-71
2021/08/30 07:27:48;;;;;;;24.80;18.85;;;18.90;99.90;;;;;;4194164;28;20404;-71
2021/08/30 07:29:50;;;;;;;26.27;18.40;;;18.90;99.90;;;;;;4195260;28;20116;-71
2021/08/30 07:31:51;;;;;;;28.40;20.25;;;18.90;99.90;;;;;;4192791;28;20044;-71
2021/08/30 07:33:53;;;;;;;29.20;19.48;;;19.00;99.90;;;;;;4190905;28;20036;-71
2021/08/30 07:35:53;;;;;;;25.63;18.35;;;19.00;99.90;;;;;;4192130;28;20518;-71
2021/08/30 07:37:55;;;;;;;29.48;20.55;;;19.00;99.90;;;;;;4189620;28;20124;-71
2021/08/30 07:39:56;;;;;;;29.95;17.50;;;19.10;99.90;;;;;;4190180;28;20025;-71
2021/08/30 07:41:56;;;;;;;30.23;19.05;;;19.20;99.90;;;;;;4184482;28;20155;-71
2021/08/30 07:43:58;;;;;;;26.38;19.55;;;19.30;99.90;;;;;;4185798;28;20476;-71
2021/08/30 07:46:00;;;;;;;34.45;18.55;;;19.30;99.90;;;;;;4173905;28;20525;-71
2021/08/30 07:48:00;;;;;;;28.10;19.73;;;19.40;99.90;;;;;;4176965;28;20140;-71
2021/08/30 07:50:01;;;;;;;26.33;19.20;;;19.50;99.90;;;;;;4192929;28;20491;-70
2021/08/30 07:52:03;;;;;;;24.25;18.40;;;19.60;99.90;;;;;;4178430;28;20463;-71
2021/08/30 07:54:03;;;;;;;22.33;17.35;;;19.70;99.90;;;;;;4180431;28;20055;-71
2021/08/30 07:56:04;;;;;;;23.90;17.60;;;19.90;99.90;;;;;;4178312;28;20021;-71
2021/08/30 07:58:05;;;;;;;24.17;18.23;;;20.00;99.90;;;;;;4177372;28;20071;-71
2021/08/30 08:00:06;;;;;;;24.25;17.25;;;20.10;99.90;;;;;;4191527;28;20112;-70
2021/08/30 08:02:07;;;;;;;24.92;17.73;;;20.10;99.90;;;;;;4196739;28;20032;-70
2021/08/30 08:04:08;;;;;;;22.42;17.00;;;20.20;99.90;;;;;;4179436;28;20595;-71
2021/08/30 08:06:08;;;;;;;25.30;18.10;;;20.20;99.90;;;;;;4178695;28;20045;-70
2021/08/30 08:08:09;;;;;;;26.67;16.88;;;20.20;99.90;;;;;;4179641;28;20025;-70
2021/08/30 08:10:10;;;;;;;28.70;17.77;;;20.20;99.90;;;;;;4180232;28;20048;-71
2021/08/30 08:12:11;;;;;;;23.65;17.48;;;20.10;99.90;;;;;;4180847;28;20734;-71
2021/08/30 08:14:11;;;;;;;29.67;17.15;;;20.00;99.90;;;;;;4178667;28;20041;-71
2021/08/30 08:16:12;;;;;;;26.13;17.15;;;19.80;99.90;;;;;;4179566;28;20037;-71
2021/08/30 08:18:13;;;;;;;22.63;16.52;;;19.70;99.90;;;;;;4179961;28;20491;-72
2021/08/30 08:20:14;;;;;;;21.25;17.30;;;19.70;99.90;;;;;;4178185;28;20056;-71
2021/08/30 08:22:14;;;;;;;19.55;15.02;;;20.00;99.90;;;;;;4180769;28;20036;-71
2021/08/30 08:24:15;;;;;;;22.75;15.57;;;20.20;99.90;;;;;;4180142;28;20037;-71
2021/08/30 08:26:16;;;;;;;22.77;16.50;;;20.40;99.90;;;;;;4181546;28;20067;-71
2021/08/30 08:28:16;;;;;;;25.75;16.85;;;20.60;99.90;;;;;;4180050;28;20104;-71
2021/08/30 08:30:17;;;;;;;20.58;15.48;;;20.60;99.90;;;;;;4180397;28;20036;-71
2021/08/30 08:32:18;;;;;;;23.90;16.42;;;20.70;99.90;;;;;;4179451;28;20037;-71
2021/08/30 08:34:19;;;;;;;28.10;17.38;;;20.70;99.90;;;;;;4179637;28;20033;-71
2021/08/30 08:36:21;;;;;;;22.85;17.48;;;20.60;99.90;;;;;;4179687;28;20033;-71
2021/08/30 08:38:23;;;;;;;21.83;16.33;;;20.60;99.90;;;;;;4179294;28;20048;-73
2021/08/30 08:40:24;;;;;;;24.80;16.45;;;20.60;99.90;;;;;;4180228;28;20021;-71
2021/08/30 08:42:24;;;;;;;20.30;14.60;;;20.60;99.90;;;;;;4177399;28;20079;-73
2021/08/30 08:44:25;;;;;;;15.80;14.10;;;20.50;99.90;;;;;;4201868;28;20043;-72
2021/08/30 08:46:27;;;;;;;28.08;16.95;;;20.40;99.90;;;;;;4209901;28;20032;-72
2021/08/30 08:48:28;;;;;;;19.70;15.90;;;20.30;99.90;;;;;;4203311;28;20101;-72
2021/08/30 08:50:30;;;;;;;21.10;15.35;;;20.40;99.90;;;;;;4210028;28;20031;-71
2021/08/30 08:52:31;;;;;;;21.77;15.38;;;20.30;99.90;;;;;;4210240;28;20115;-70
2021/08/30 08:54:31;;;;;;;24.65;16.60;;;20.30;99.90;;;;;;4211445;28;20040;-71
2021/08/30 08:56:32;;;;;;;20.70;15.32;;;20.50;99.90;;;;;;4210869;28;20035;-71
2021/08/30 08:58:33;;;;;;;22.20;16.08;;;20.80;99.90;;;;;;4208631;28;20032;-71
2021/08/30 09:00:33;;;;;;;20.48;14.15;;;21.10;99.90;;;;;;4208539;28;20074;-72
2021/08/30 09:02:34;;;;;;;21.50;13.75;;;21.30;99.90;;;;;;4209778;28;20475;-71
2021/08/30 09:04:36;;;;;;;20.52;14.70;;;21.50;99.90;;;;;;4211140;28;20031;-71
2021/08/30 09:06:42;;;;;;;20.17;14.45;;;21.70;99.90;;;;;;4211592;28;20036;-71
2021/08/30 09:08:43;;;;;;;18.60;13.55;;;21.90;99.90;;;;;;4210806;28;20027;-70
2021/08/30 09:10:45;;;;;;;16.10;12.82;;;22.20;99.90;;;;;;4209633;28;20074;-71
2021/08/30 09:12:47;;;;;;;18.00;13.32;;;22.30;99.90;;;;;;4207802;28;20037;-72
2021/08/30 09:14:48;;;;;;;19.55;12.70;;;22.40;99.90;;;;;;4191262;28;20044;-71
2021/08/30 09:17:02;;;;;;;17.65;12.77;;;22.50;99.90;;;;;;4209084;28;20067;-72
2021/08/30 09:19:05;;;;;;;17.05;13.48;;;22.70;99.90;;;;;;4207838;28;20031;-70
2021/08/30 09:21:14;;;;;;;16.08;13.88;;;22.60;99.90;;;;;;4208900;28;20043;-71
2021/08/30 09:23:15;;;;;;;18.25;13.10;;;22.50;99.90;;;;;;4207535;28;20043;-72
2021/08/30 09:25:17;;;;;;;20.83;12.57;;;22.50;99.90;;;;;;4209891;28;20028;-72
2021/08/30 09:27:17;;;;;;;16.25;13.30;;;22.50;99.90;;;;;;4192182;28;20033;-72
2021/08/30 09:29:26;;;;;;;15.30;12.85;;;22.30;99.90;;;;;;4192703;28;20028;-72
2021/08/30 09:31:27;;;;;;;22.73;13.75;;;22.30;99.90;;;;;;4211027;28;20043;-72
2021/08/30 09:33:28;;;;;;;17.38;12.38;;;22.60;99.90;;;;;;4193656;28;20520;-71
2021/08/30 09:35:29;;;;;;;18.42;13.63;;;22.80;99.90;;;;;;4210683;28;20387;-70
2021/08/30 09:37:31;;;;;;;20.80;12.50;;;22.80;99.90;;;;;;4211452;28;20097;-71
2021/08/30 09:39:33;;;;;;;13.07;11.05;;;22.90;99.90;;;;;;4207137;28;20040;-71
2021/08/30 09:41:37;;;;;;;15.25;12.75;;;23.00;99.90;;;;;;4193383;28;20575;-70
2021/08/30 09:43:37;;;;;;;12.77;10.65;;;22.90;99.90;;;;;;4206591;28;20048;-71
2021/08/30 09:45:43;;;;;;;18.27;11.55;;;22.90;99.90;;;;;;4204957;28;20101;-71
2021/08/30 09:48:07;;;;;;;16.92;12.32;;;23.00;99.90;;;;;;4209046;28;20058;-71
2021/08/30 09:50:10;;;;;;;14.80;12.13;;;23.10;99.90;;;;;;4210015;28;20024;-72
2021/08/30 09:52:10;;;;;;;13.63;11.93;;;23.40;99.90;;;;;;4192391;28;20120;-72
2021/08/30 09:54:13;;;;;;;13.63;11.20;;;23.90;99.90;;;;;;4204794;28;20536;-72
2021/08/30 09:56:14;;;;;;;13.10;11.02;;;24.00;99.90;;;;;;4210190;28;20032;-71
2021/08/30 09:58:17;;;;;;;13.80;10.50;;;23.70;99.90;;;;;;4193269;28;20025;-71
2021/08/30 10:00:19;;;;;;;15.73;10.73;;;23.50;99.90;;;;;;4211053;28;20115;-70
2021/08/30 10:02:20;;;;;;;16.15;12.38;;;23.80;99.90;;;;;;4207786;28;20054;-71
2021/08/30 10:04:21;;;;;;;11.27;10.18;;;24.20;99.90;;;;;;4205821;28;20033;-71
2021/08/30 10:06:22;;;;;;;11.57;10.18;;;24.50;99.90;;;;;;4211391;28;20055;-71
2021/08/30 10:08:23;;;;;;;12.70;10.57;;;24.90;99.90;;;;;;4216244;28;20051;-71
2021/08/30 10:10:23;;;;;;;13.70;10.75;;;25.20;99.90;;;;;;4213647;28;20115;-71
2021/08/30 10:12:24;;;;;;;15.00;10.43;;;25.40;99.90;;;;;;4194690;28;20865;-71
2021/08/30 10:14:27;;;;;;;15.48;10.18;;;25.50;99.90;;;;;;4196432;28;20037;-70
2021/08/30 10:16:28;;;;;;;16.50;11.20;;;25.70;99.90;;;;;;4215349;28;20380;-72
2021/08/30 10:18:29;;;;;;;12.25;10.00;;;25.50;99.90;;;;;;4215621;28;20046;-71
2021/08/30 10:20:34;;;;;;;13.35;9.63;;;25.20;99.90;;;;;;4212699;28;20063;-71
2021/08/30 10:22:35;;;;;;;12.65;10.38;;;25.10;99.90;;;;;;4211137;28;20032;-73
2021/08/30 10:24:43;;;;;;;14.27;10.95;;;24.50;99.90;;;;;;4217431;28;20518;-72